Time;durP1;ratioP1;P1;durP2;ratioP2;P2;SDS_P1;SDS_P2;PMS_P1;PMS_P2;Temp;Humidity;BMP_temperature;BMP_pressure;BME280_temperature;BME280_humidity;BME280_pressure;Samples;Min_cycle;Max_cycle;Signal;HPM_P1;HPM_P2
2022/05/09 00:01:06;;;;;;;6.47;1.98;;;;;;;9.94;48.57;102128.44;4902653;28;20071;-84
2022/05/09 00:03:33;;;;;;;5.07;1.83;;;;;;;9.97;48.66;102130.22;4906810;28;20063;-86
2022/05/09 00:06:02;;;;;;;4.03;2.63;;;;;;;9.94;48.73;102128.44;4898583;28;20055;-87
2022/05/09 00:08:28;;;;;;;2.30;1.65;;;;;;;9.93;48.63;102124.06;4917081;28;20055;-87
2022/05/09 00:10:57;;;;;;;5.97;2.50;;;;;;;9.91;48.74;102114.44;4921041;28;20483;-87
2022/05/09 00:13:24;;;;;;;5.85;1.67;;;;;;;9.87;48.71;102123.09;4906841;28;20064;-85
2022/05/09 00:15:51;;;;;;;5.90;1.65;;;;;;;9.84;48.60;102118.69;4907381;28;20056;-86
2022/05/09 00:18:19;;;;;;;2.83;1.77;;;;;;;9.81;48.70;102117.75;4895747;28;20075;-84
2022/05/09 00:20:46;;;;;;;7.22;1.80;;;;;;;9.77;48.80;102109.81;4897460;28;20056;-86
2022/05/09 00:23:15;;;;;;;7.00;1.80;;;;;;;9.75;49.25;102115.88;4906270;28;20520;-86
2022/05/09 00:25:41;;;;;;;3.00;1.50;;;;;;;9.75;49.32;102118.50;4920846;28;20139;-87
2022/05/09 00:28:08;;;;;;;6.28;1.75;;;;;;;9.71;49.07;102116.69;4918214;28;20051;-85
2022/05/09 00:30:35;;;;;;;4.80;1.83;;;;;;;9.67;49.60;102123.56;4980697;28;20182;-88
2022/05/09 00:33:02;;;;;;;5.88;1.83;;;;;;;9.63;49.62;102119.16;4924976;28;20152;-87
2022/05/09 00:35:30;;;;;;;2.80;1.67;;;;;;;9.60;49.95;102125.19;4922959;28;20048;-87
2022/05/09 00:37:56;;;;;;;3.67;1.88;;;;;;;9.62;49.77;102125.25;4895897;28;20059;-87
2022/05/09 00:40:23;;;;;;;2.00;1.45;;;;;;;9.58;49.93;102119.09;4904371;28;20056;-87
2022/05/09 00:42:53;;;;;;;6.25;2.30;;;;;;;9.56;50.30;102123.38;4918383;28;20061;-86
2022/05/09 00:45:25;;;;;;;6.45;1.77;;;;;;;9.54;50.37;102121.59;4900792;28;20071;-86
2022/05/09 00:47:52;;;;;;;3.25;1.70;;;;;;;9.52;50.37;102123.31;4892561;28;20052;-84
2022/05/09 00:50:26;;;;;;;4.03;1.95;;;;;;;9.50;50.53;102127.63;4910242;28;20056;-84
2022/05/09 00:53:06;;;;;;;3.63;1.60;;;;;;;9.50;51.05;102127.63;4910931;28;20063;-85
2022/05/09 00:55:44;;;;;;;6.68;2.53;;;;;;;9.48;50.95;102137.16;4913916;28;20048;-87
2022/05/09 00:58:20;;;;;;;3.42;1.60;;;;;;;9.47;51.14;102132.81;4901731;28;20067;-88
2022/05/09 01:00:48;;;;;;;3.70;2.08;;;;;;;9.47;50.97;102132.81;4894825;28;20110;-84
2022/05/09 01:03:26;;;;;;;2.83;1.63;;;;;;;9.45;51.41;102124.91;4915981;28;21240;-86
2022/05/09 01:05:53;;;;;;;4.28;3.33;;;;;;;9.40;51.51;102123.97;4900297;28;20068;-86
2022/05/09 01:08:22;;;;;;;2.95;1.92;;;;;;;9.36;51.88;102125.63;4905203;28;20119;-82
2022/05/09 01:10:49;;;;;;;1.95;1.73;;;;;;;9.35;51.83;102129.09;4920659;28;20433;-87
2022/05/09 01:13:21;;;;;;;4.47;1.75;;;;;;;9.32;51.97;102122.91;4921346;28;20064;-87
2022/05/09 01:15:53;;;;;;;3.50;2.70;;;;;;;9.30;52.45;102127.25;4907144;28;20455;-85
2022/05/09 01:18:21;;;;;;;4.28;2.38;;;;;;;9.25;52.41;102132.38;4905804;28;20055;-87
2022/05/09 01:20:48;;;;;;;3.60;2.15;;;;;;;9.21;52.60;102126.19;4898710;28;20051;-87
2022/05/09 01:23:14;;;;;;;5.90;1.83;;;;;;;9.18;52.73;102128.75;4906490;28;20048;-86
2022/05/09 01:25:43;;;;;;;4.60;1.92;;;;;;;9.19;53.20;102132.22;4920837;28;20137;-88
2022/05/09 01:28:11;;;;;;;5.95;1.95;;;;;;;9.17;53.26;102136.56;4901084;28;20052;-87
2022/05/09 01:31:04;;;;;;;3.83;2.13;;;;;;;9.14;53.11;102120.81;4918782;28;20076;-87
2022/05/09 01:33:34;;;;;;;10.98;2.10;;;;;;;9.08;53.37;102122.44;4897095;28;20051;-85
2022/05/09 01:36:21;;;;;;;4.15;2.05;;;;;;;9.05;53.19;102126.75;4907759;28;20052;-87
2022/05/09 01:39:00;;;;;;;4.72;2.03;;;;;;;9.04;53.67;102130.19;4926275;28;20076;-87
2022/05/09 01:41:31;;;;;;;5.07;2.15;;;;;;;9.02;53.76;102121.44;4916190;28;20050;-87
2022/05/09 01:43:57;;;;;;;5.72;1.83;;;;;;;9.01;53.65;102131.00;4901519;28;20155;-87
2022/05/09 01:46:28;;;;;;;6.47;2.00;;;;;;;8.96;53.64;102121.28;4902708;28;20079;-88
2022/05/09 01:51:44;;;;;;;6.57;2.15;;;;;;;8.88;54.01;102121.16;4913336;28;20048;-87
2022/05/09 01:54:15;;;;;;;7.15;2.10;;;;;;;8.86;53.92;102128.06;4921233;28;20067;-87
2022/05/09 01:56:43;;;;;;;4.03;1.70;;;;;;;8.83;54.30;102122.78;4920158;28;20427;-86
2022/05/09 01:59:12;;;;;;;4.07;2.08;;;;;;;8.82;54.27;102128.84;4901821;28;20059;-88
2022/05/09 02:01:47;;;;;;;4.70;1.80;;;;;;;8.78;55.05;102128.75;4914314;28;20044;-86
2022/05/09 02:04:15;;;;;;;4.88;1.98;;;;;;;8.76;55.07;102125.25;4925020;28;20128;-87
2022/05/09 02:06:43;;;;;;;4.20;1.65;;;;;;;8.72;55.04;102123.44;4910484;28;20058;-88
2022/05/09 02:09:11;;;;;;;7.50;1.77;;;;;;;8.70;55.30;102125.09;4910889;28;20057;-87
2022/05/09 02:11:38;;;;;;;2.30;1.45;;;;;;;8.68;55.23;102125.91;4899613;28;20052;-86
2022/05/09 02:14:06;;;;;;;4.72;1.73;;;;;;;8.66;55.77;102125.03;4911180;28;20687;-87
2022/05/09 02:16:33;;;;;;;2.15;1.63;;;;;;;8.63;55.51;102127.53;4976218;28;20062;-88
2022/05/09 02:19:00;;;;;;;4.47;1.63;;;;;;;8.62;55.64;102126.69;4901765;28;20056;-86
2022/05/09 02:21:26;;;;;;;4.82;2.15;;;;;;;8.59;56.12;102124.88;4914188;28;20051;-85
2022/05/09 02:23:53;;;;;;;5.72;1.65;;;;;;;8.59;55.87;102129.19;4901899;28;20054;-87
2022/05/09 02:26:20;;;;;;;8.25;2.05;;;;;;;8.55;56.41;102120.44;4920450;28;20668;-88
2022/05/09 02:28:47;;;;;;;6.00;2.25;;;;;;;8.54;56.94;102125.59;4916042;28;20036;-86
2022/05/09 02:31:14;;;;;;;7.07;1.92;;;;;;;8.51;57.68;102125.53;4922393;28;20054;-86
2022/05/09 02:33:41;;;;;;;4.68;1.83;;;;;;;8.52;56.89;102114.25;4924683;28;20123;-86
2022/05/09 02:36:08;;;;;;;2.22;1.88;;;;;;;8.48;57.31;102120.25;4917167;28;20149;-88
2022/05/09 02:38:35;;;;;;;9.38;2.33;;;;;;;8.41;57.51;102119.19;4937923;28;20144;-86
2022/05/09 02:41:02;;;;;;;7.30;1.75;;;;;;;8.40;57.71;102125.25;4987713;28;20052;-85
2022/05/09 02:43:29;;;;;;;4.70;1.67;;;;;;;8.35;57.55;102122.53;4898553;28;20058;-86
2022/05/09 02:46:03;;;;;;;6.82;1.90;;;;;;;8.31;57.63;102119.81;4934092;28;20046;-87
2022/05/09 02:48:35;;;;;;;2.95;1.70;;;;;;;8.27;57.68;102114.50;4906100;28;20113;-87
2022/05/09 02:51:02;;;;;;;11.73;2.40;;;;;;;8.22;58.06;102112.66;4904776;28;20198;-86
2022/05/09 02:53:30;;;;;;;4.00;2.25;;;;;;;8.20;58.10;102110.00;4914544;28;20056;-87
2022/05/09 02:55:57;;;;;;;5.45;1.52;;;;;;;8.19;58.00;102115.19;4904276;28;20251;-87
2022/05/09 02:58:23;;;;;;;3.35;1.80;;;;;;;8.15;58.45;102103.81;4912836;28;20042;-87
2022/05/09 03:00:51;;;;;;;4.13;2.08;;;;;;;8.14;58.43;102109.84;4898019;28;20097;-86
2022/05/09 03:06:05;;;;;;;8.77;2.40;;;;;;;8.08;58.88;102114.91;4910414;28;20051;-84
2022/05/09 03:08:32;;;;;;;10.38;2.58;;;;;;;8.09;58.94;102111.47;4917077;28;20106;-87
2022/05/09 03:11:00;;;;;;;10.80;3.42;;;;;;;8.05;59.17;102118.31;4897990;28;20052;-87
2022/05/09 03:13:26;;;;;;;5.68;2.22;;;;;;;8.04;58.74;102115.69;4924100;28;20087;-85
2022/05/09 03:15:53;;;;;;;3.75;1.70;;;;;;;7.98;59.26;102119.03;4909500;28;20078;-87
2022/05/09 03:18:26;;;;;;;2.92;1.63;;;;;;;7.94;59.00;102104.16;4905919;28;20044;-83
2022/05/09 03:20:53;;;;;;;4.75;2.20;;;;;;;7.92;58.95;102116.25;4896795;28;20098;-84
2022/05/09 03:23:20;;;;;;;3.83;2.10;;;;;;;7.88;59.19;102111.81;4912659;28;20071;-83
2022/05/09 03:25:47;;;;;;;5.68;2.90;;;;;;;7.87;59.23;102107.44;4905759;28;20047;-83
2022/05/09 03:28:24;;;;;;;2.30;1.60;;;;;;;7.84;59.22;102109.97;4919414;28;20550;-85
2022/05/09 03:30:56;;;;;;;14.77;2.30;;;;;;;7.78;60.01;102106.38;4919297;28;20056;-87
2022/05/09 03:33:24;;;;;;;6.18;2.10;;;;;;;7.75;59.82;102108.88;4895246;28;20055;-88
2022/05/09 03:35:52;;;;;;;2.05;1.85;;;;;;;7.73;60.04;102101.84;4900747;28;20087;-83
2022/05/09 03:38:21;;;;;;;7.75;1.98;;;;;;;7.73;60.04;102099.25;4915497;28;20048;-85
2022/05/09 03:40:48;;;;;;;8.13;2.13;;;;;;;7.71;59.79;102101.81;4897810;28;20079;-85
2022/05/09 03:43:15;;;;;;;5.43;1.83;;;;;;;7.69;60.07;102107.84;4911654;28;20176;-87
2022/05/09 03:45:44;;;;;;;8.20;2.60;;;;;;;7.66;60.50;102105.16;4905170;28;20574;-84
2022/05/09 03:48:11;;;;;;;5.03;1.85;;;;;;;7.65;60.27;102106.88;4932645;28;20040;-87
2022/05/09 03:50:38;;;;;;;9.23;2.60;;;;;;;7.64;60.65;102109.44;4912933;28;20048;-84
2022/05/09 03:53:05;;;;;;;2.80;2.28;;;;;;;7.64;60.34;102107.72;4909333;28;20585;-87
2022/05/09 03:55:33;;;;;;;4.75;2.40;;;;;;;7.63;60.90;102105.97;4923809;28;20031;-88
2022/05/09 03:58:00;;;;;;;6.72;2.50;;;;;;;7.65;60.57;102108.59;4911149;28;20044;-86
2022/05/09 04:00:33;;;;;;;6.90;2.40;;;;;;;7.64;60.99;102107.72;4993993;28;20073;-86
2022/05/09 04:03:01;;;;;;;;;;;;;;;7.62;61.26;102104.19;4930589;28;20055;-86
2022/05/09 04:05:30;;;;;;;8.98;2.22;;;;;;;7.59;61.23;102104.97;4923714;28;19927;-87
2022/05/09 04:07:59;;;;;;;8.50;2.22;;;;;;;7.58;61.69;102098.00;4915835;28;20122;-87
2022/05/09 04:10:31;;;;;;;4.50;2.00;;;;;;;7.59;61.57;102106.72;4898130;28;20051;-87
2022/05/09 04:13:00;;;;;;;9.65;2.17;;;;;;;7.57;61.46;102104.09;4900801;28;20071;-86
2022/05/09 04:18:17;;;;;;;11.57;3.60;;;;;;;7.58;61.52;102105.81;4930124;28;20375;-84
2022/05/09 04:20:46;;;;;;;8.10;2.60;;;;;;;7.59;61.44;102111.94;4910674;28;20043;-82
2022/05/09 04:23:13;;;;;;;6.82;2.75;;;;;;;7.62;61.73;102110.28;4918122;28;20060;-84
2022/05/09 04:25:40;;;;;;;4.05;2.22;;;;;;;7.64;61.58;102112.03;4902811;28;20040;-85
2022/05/09 04:28:08;;;;;;;9.32;2.80;;;;;;;7.66;61.44;102110.38;4895861;28;20055;-84
2022/05/09 04:30:38;;;;;;;6.85;2.05;;;;;;;7.67;61.86;102114.75;4906991;28;20055;-84
2022/05/09 04:33:08;;;;;;;6.65;2.20;;;;;;;7.68;61.82;102106.97;4881831;28;21231;-85
2022/05/09 04:35:37;;;;;;;6.93;1.95;;;;;;;7.71;61.90;102109.63;4915774;28;20184;-86
2022/05/09 04:38:04;;;;;;;6.72;2.33;;;;;;;7.73;61.75;102105.34;4941148;28;20054;-85
2022/05/09 04:40:35;;;;;;;8.15;2.08;;;;;;;7.78;61.82;102115.88;4912373;28;20056;-85
2022/05/09 04:43:02;;;;;;;5.82;2.35;;;;;;;7.78;61.74;102111.59;4896957;28;20056;-86
2022/05/09 04:45:34;;;;;;;4.13;2.60;;;;;;;7.83;61.50;102116.03;4918655;28;20048;-87
2022/05/09 04:48:01;;;;;;;9.10;3.05;;;;;;;7.88;61.65;102109.22;4901014;28;20139;-86
2022/05/09 04:50:32;;;;;;;6.22;2.08;;;;;;;7.89;61.55;102114.44;4910709;28;20476;-85
2022/05/09 04:52:59;;;;;;;7.72;2.78;;;;;;;7.94;61.12;102111.97;4897880;28;20102;-84
2022/05/09 04:55:26;;;;;;;5.35;2.40;;;;;;;8.01;61.23;102110.41;4914412;28;20051;-85
2022/05/09 04:57:53;;;;;;;7.38;2.55;;;;;;;8.04;61.29;102111.34;4923693;28;20036;-86
2022/05/09 05:00:25;;;;;;;7.68;2.17;;;;;;;8.11;60.94;102115.00;4938110;28;20728;-86
2022/05/09 05:02:54;;;;;;;6.95;2.65;;;;;;;8.17;61.38;102109.91;4924339;28;20384;-87
2022/05/09 05:05:22;;;;;;;5.68;2.13;;;;;;;8.19;60.89;102108.25;4902627;28;20498;-85
2022/05/09 05:07:51;;;;;;;4.70;2.33;;;;;;;8.22;60.98;102116.13;4918849;28;20071;-84
2022/05/09 05:10:20;;;;;;;8.70;2.63;;;;;;;8.24;60.81;102118.81;4917663;28;20163;-86
2022/05/09 05:12:47;;;;;;;8.55;3.33;;;;;;;8.28;60.96;102111.06;4938130;28;20075;-87
2022/05/09 05:15:15;;;;;;;9.48;3.30;;;;;;;8.32;61.26;102114.63;4994895;28;20052;-87
2022/05/09 05:17:42;;;;;;;7.90;2.58;;;;;;;8.36;61.73;102116.47;4924674;28;20051;-84
2022/05/09 05:20:17;;;;;;;7.13;2.20;;;;;;;8.41;61.03;102120.06;4904570;28;20090;-86
2022/05/09 05:22:48;;;;;;;6.80;2.20;;;;;;;8.45;61.18;102118.44;4918363;28;20051;-87
2022/05/09 05:25:21;;;;;;;7.88;2.33;;;;;;;8.50;61.35;102121.16;4926754;28;20082;-85
2022/05/09 05:27:48;;;;;;;7.43;3.67;;;;;;;8.51;61.36;102115.97;4918380;28;20052;-86
2022/05/09 05:30:22;;;;;;;12.13;2.67;;;;;;;8.52;61.19;102111.66;4920467;28;20048;-86
2022/05/09 05:32:49;;;;;;;10.13;6.40;;;;;;;8.58;61.65;102117.00;4926053;28;20067;-87
2022/05/09 05:35:26;;;;;;;22.95;11.32;;;;;;;8.63;61.58;102119.72;4925438;28;20053;-85
2022/05/09 05:37:54;;;;;;;21.30;12.15;;;;;;;8.64;62.12;102121.47;4916287;28;20070;-87
2022/05/09 05:40:21;;;;;;;13.80;7.93;;;;;;;8.66;61.76;102112.84;4895847;28;20486;-86
2022/05/09 05:42:50;;;;;;;10.27;6.80;;;;;;;8.76;62.01;102113.91;4911479;28;20151;-86
2022/05/09 05:45:21;;;;;;;5.47;3.42;;;;;;;8.84;61.94;102112.38;4921846;28;20082;-84
2022/05/09 05:47:49;;;;;;;9.10;3.35;;;;;;;8.90;61.93;102111.59;4920333;28;20051;-86
2022/05/09 05:50:20;;;;;;;8.48;3.40;;;;;;;8.95;61.86;102104.75;4918546;28;20044;-85
2022/05/09 05:52:48;;;;;;;10.90;3.30;;;;;;;9.01;61.51;102114.44;4896298;28;20719;-85
2022/05/09 05:55:14;;;;;;;8.90;3.33;;;;;;;9.03;62.15;102117.97;4880021;28;20376;-86
2022/05/09 05:57:44;;;;;;;8.60;3.00;;;;;;;9.04;62.00;102118.00;4903750;28;20062;-86
2022/05/09 06:00:21;;;;;;;8.10;2.83;;;;;;;9.08;62.38;102118.97;4930291;28;20079;-85
2022/05/09 06:02:50;;;;;;;11.73;3.40;;;;;;;9.15;61.97;102114.75;4892597;28;20043;-86
2022/05/09 06:05:19;;;;;;;15.18;4.63;;;;;;;9.24;62.05;102115.81;4918186;28;20502;-85
2022/05/09 06:07:49;;;;;;;9.52;4.32;;;;;;;9.39;61.71;102117.84;4955655;28;20052;-86
2022/05/09 06:10:18;;;;;;;9.80;3.28;;;;;;;9.50;61.49;102115.41;4913461;28;20111;-86
2022/05/09 06:12:45;;;;;;;6.57;3.03;;;;;;;9.65;61.20;102114.84;4881981;28;20145;-85
2022/05/09 06:18:08;;;;;;;8.10;2.75;;;;;;;9.79;60.59;102109.88;4928723;28;20480;-84
2022/05/09 06:20:38;;;;;;;13.05;4.13;;;;;;;9.87;60.38;102112.63;4919911;28;20041;-85
2022/05/09 06:23:09;;;;;;;5.28;3.13;;;;;;;9.90;60.56;102112.66;4890863;28;20136;-86
2022/05/09 06:25:36;;;;;;;10.68;3.60;;;;;;;9.96;60.22;102104.94;4914230;28;20442;-87
2022/05/09 06:28:06;;;;;;;15.80;4.53;;;;;;;10.06;60.55;102114.69;4913256;28;20039;-84
2022/05/09 06:30:36;;;;;;;6.40;3.10;;;;;;;10.18;60.22;102111.41;4891517;28;20052;-88
2022/05/09 06:33:04;;;;;;;7.25;3.42;;;;;;;10.26;59.35;102111.53;4902185;28;20457;-87
2022/05/09 06:35:31;;;;;;;9.05;3.05;;;;;;;10.34;59.29;102116.84;4911865;28;20044;-85
2022/05/09 06:38:05;;;;;;;12.48;3.08;;;;;;;10.45;59.45;102112.69;4922511;28;20056;-86
2022/05/09 06:40:35;;;;;;;11.10;3.38;;;;;;;10.60;59.16;102106.81;4928259;28;20052;-88
2022/05/09 06:43:10;;;;;;;6.25;3.47;;;;;;;10.75;58.19;102112.28;4914197;28;20041;-86
2022/05/09 06:45:40;;;;;;;14.52;3.30;;;;;;;10.88;57.90;102104.56;4908962;28;20045;-85
2022/05/09 06:48:08;;;;;;;9.95;3.20;;;;;;;11.01;56.96;102114.34;4911144;28;20068;-87
2022/05/09 06:50:37;;;;;;;11.95;2.88;;;;;;;11.09;56.49;102106.59;4890667;28;20048;-87
2022/05/09 06:53:04;;;;;;;5.15;3.10;;;;;;;11.21;56.35;102103.22;4894037;28;20040;-85
2022/05/09 06:55:31;;;;;;;6.45;2.42;;;;;;;11.34;56.07;102107.78;4912248;28;20053;-85
2022/05/09 06:57:59;;;;;;;7.85;3.10;;;;;;;11.52;55.75;102106.19;4903819;28;20059;-86
2022/05/09 07:00:27;;;;;;;8.25;3.20;;;;;;;11.81;54.76;102117.00;4927038;28;20041;-86
2022/05/09 07:02:53;;;;;;;9.35;3.08;;;;;;;12.22;53.98;102105.97;4915345;28;20056;-85
2022/05/09 07:05:22;;;;;;;9.55;2.53;;;;;;;12.66;52.24;102109.78;4900100;28;20071;-87
2022/05/09 07:07:50;;;;;;;4.10;2.13;;;;;;;13.05;51.72;102108.22;4911004;28;20067;-86
2022/05/09 07:10:19;;;;;;;8.25;2.78;;;;;;;13.52;50.60;102105.78;4892193;28;20048;-85
2022/05/09 07:12:52;;;;;;;11.20;2.92;;;;;;;14.13;49.77;102101.41;4905527;28;20060;-86
2022/05/09 07:15:24;;;;;;;9.27;3.03;;;;;;;14.69;47.58;102103.13;4897986;28;20075;-85
2022/05/09 07:17:52;;;;;;;7.22;2.63;;;;;;;15.13;47.20;102106.47;4924683;28;20453;-86
2022/05/09 07:20:21;;;;;;;8.43;2.90;;;;;;;15.52;46.31;102106.25;4918726;28;20040;-85
2022/05/09 07:22:53;;;;;;;4.18;2.42;;;;;;;15.90;45.18;102105.13;4917957;28;20523;-87
2022/05/09 07:25:21;;;;;;;5.90;2.93;;;;;;;16.31;44.52;102098.63;4897851;28;20056;-86
2022/05/09 07:27:48;;;;;;;4.78;2.42;;;;;;;16.89;42.92;102093.56;4922228;28;20291;-84
2022/05/09 07:30:20;;;;;;;6.97;2.45;;;;;;;17.31;42.08;102096.59;4924222;28;20063;-85
2022/05/09 07:32:47;;;;;;;3.45;2.90;;;;;;;17.64;41.67;102099.63;4927035;28;20055;-84
2022/05/09 07:35:20;;;;;;;11.57;3.28;;;;;;;17.96;40.76;102095.63;4896699;28;20063;-85
2022/05/09 07:37:50;;;;;;;5.53;2.57;;;;;;;18.35;40.08;102092.28;4926983;28;20056;-86
2022/05/09 07:40:20;;;;;;;8.50;3.33;;;;;;;18.54;39.10;102087.53;4929261;28;20330;-84
2022/05/09 07:42:49;;;;;;;7.35;3.03;;;;;;;18.57;39.07;102095.41;4903798;28;20052;-86
2022/05/09 07:45:20;;;;;;;10.63;5.07;;;;;;;18.88;37.83;102097.47;4906283;28;20052;-86
2022/05/09 07:47:49;;;;;;;7.85;2.90;;;;;;;19.28;37.60;102099.28;4924746;28;20060;-85
2022/05/09 07:50:21;;;;;;;7.20;2.80;;;;;;;19.72;36.97;102106.25;4919477;28;20110;-86
2022/05/09 07:52:50;;;;;;;7.20;2.83;;;;;;;20.31;36.04;102111.88;4930173;28;20119;-87
2022/05/09 07:55:17;;;;;;;6.93;2.95;;;;;;;20.61;35.48;102103.97;4935294;28;20040;-85
2022/05/09 07:57:44;;;;;;;8.15;3.08;;;;;;;21.05;34.45;102105.41;4908461;28;20048;-88
2022/05/09 08:00:14;;;;;;;9.80;3.35;;;;;;;21.34;33.52;102103.66;4906624;28;20513;-87
2022/05/09 08:02:41;;;;;;;6.43;2.45;;;;;;;21.48;33.52;102107.66;4937174;28;20136;-86
2022/05/09 08:05:11;;;;;;;6.68;2.75;;;;;;;21.53;32.93;102098.63;4933784;28;20044;-86
2022/05/09 08:07:39;;;;;;;7.35;2.42;;;;;;;21.78;32.97;102109.38;4911223;28;20040;-87
2022/05/09 08:10:09;;;;;;;5.05;2.88;;;;;;;22.23;32.39;102106.09;4920455;28;20052;-87
2022/05/09 08:12:39;;;;;;;6.30;2.63;;;;;;;22.55;31.70;102097.91;4904811;28;20119;-86
2022/05/09 08:15:09;;;;;;;7.60;2.97;;;;;;;22.96;31.17;102096.34;4909685;28;20534;-85
2022/05/09 08:17:36;;;;;;;6.05;2.50;;;;;;;23.23;30.02;102090.91;4907674;28;20040;-87
2022/05/09 08:20:05;;;;;;;6.75;2.55;;;;;;;23.53;30.05;102092.41;4925155;28;20052;-86
2022/05/09 08:22:33;;;;;;;7.18;2.80;;;;;;;23.84;29.75;102086.63;4919294;28;20126;-87
2022/05/09 08:25:04;;;;;;;4.85;2.60;;;;;;;24.08;29.07;102091.94;4901643;28;20106;-86
2022/05/09 08:27:32;;;;;;;7.22;3.05;;;;;;;24.43;28.80;102092.16;4940839;28;20048;-86
2022/05/09 08:29:59;;;;;;;9.77;2.60;;;;;;;24.59;28.43;102097.72;4928464;28;20040;-88
2022/05/09 08:32:32;;;;;;;8.52;2.75;;;;;;;24.82;27.77;102087.78;4929078;28;20044;-88
2022/05/09 08:35:03;;;;;;;8.85;2.58;;;;;;;24.95;27.40;102078.22;4928401;28;20083;-86
2022/05/09 08:37:30;;;;;;;6.72;2.42;;;;;;;25.10;27.40;102084.69;4906527;28;20072;-88
2022/05/09 08:40:00;;;;;;;9.23;3.10;;;;;;;25.34;27.13;102092.47;4913591;28;20087;-87
2022/05/09 08:42:44;;;;;;;11.48;3.15;;;;;;;25.82;26.44;102084.78;4891048;28;20044;-89
2022/05/09 08:45:41;;;;;;;7.47;3.05;;;;;;;26.53;25.12;102090.06;4901252;28;20059;-88
2022/05/09 08:48:38;;;;;;;9.10;2.88;;;;;;;26.82;24.51;102089.47;4921461;28;20049;-87
2022/05/09 08:51:44;;;;;;;4.55;2.72;;;;;;;26.88;24.19;102089.09;4913609;28;20764;-88
2022/05/09 08:54:21;;;;;;;5.00;2.50;;;;;;;27.32;24.27;102080.34;4892356;28;20112;-87
2022/05/09 08:56:57;;;;;;;7.95;3.55;;;;;;;27.56;23.93;102082.59;4934613;28;20127;-86
2022/05/09 08:59:34;;;;;;;5.57;2.70;;;;;;;27.97;23.17;102075.75;4895051;28;20047;-85
2022/05/09 09:02:31;;;;;;;7.15;2.83;;;;;;;27.43;23.18;102084.28;4917236;28;20106;-88
2022/05/09 09:04:59;;;;;;;5.18;2.20;;;;;;;27.62;22.95;102079.56;4910826;28;20063;-87
2022/05/09 09:08:11;;;;;;;4.95;2.53;;;;;;;27.77;22.57;102077.81;4889041;28;20039;-88
2022/05/09 09:11:09;;;;;;;6.63;2.65;;;;;;;28.60;21.74;102079.94;4995061;28;20161;-89
2022/05/09 09:13:51;;;;;;;8.35;3.25;;;;;;;29.33;21.71;102073.53;4932743;28;20043;-86
2022/05/09 09:16:30;;;;;;;6.90;3.08;;;;;;;28.93;20.87;102073.44;4923548;28;20041;-88
2022/05/09 09:19:41;;;;;;;5.75;2.55;;;;;;;28.77;20.95;102078.91;4928814;28;20116;-88
2022/05/09 09:22:39;;;;;;;6.82;3.22;;;;;;;29.27;20.40;102070.38;4915896;28;20110;-88
2022/05/09 09:25:48;;;;;;;5.75;2.50;;;;;;;29.86;19.99;102060.06;4933003;28;20044;-86
2022/05/09 09:28:30;;;;;;;6.03;2.08;;;;;;;30.07;19.23;102061.44;4929116;28;20038;-87
2022/05/09 09:30:58;;;;;;;7.65;2.22;;;;;;;29.60;19.04;102066.41;4899110;28;20562;-88
2022/05/09 09:33:25;;;;;;;13.13;2.92;;;;;;;29.73;18.54;102053.78;4900771;28;20048;-88
2022/05/09 09:36:05;;;;;;;4.13;2.42;;;;;;;30.38;18.85;102048.44;4885281;28;20697;-88
2022/05/09 09:38:53;;;;;;;10.85;2.67;;;;;;;31.23;17.51;102045.06;4926812;28;20040;-87
2022/05/09 09:41:30;;;;;;;4.82;2.47;;;;;;;31.30;17.69;102043.59;4912205;28;20574;-87
2022/05/09 09:44:09;;;;;;;6.18;2.90;;;;;;;31.20;17.47;102053.38;4924874;28;20056;-88
2022/05/09 09:47:08;;;;;;;4.85;2.15;;;;;;;31.17;17.33;102049.94;4925233;28;20063;-87
2022/05/09 09:49:45;;;;;;;5.75;2.10;;;;;;;31.32;17.37;102036.25;4915862;28;20129;-88
2022/05/09 09:52:34;;;;;;;5.03;2.00;;;;;;;31.49;17.21;102037.66;4894648;28;20475;-87
2022/05/09 09:55:23;;;;;;;4.95;2.35;;;;;;;31.88;16.24;102037.44;4909360;28;21604;-87
2022/05/09 09:58:00;;;;;;;6.13;2.13;;;;;;;32.41;15.93;102026.94;4894302;28;20143;-87
2022/05/09 10:00:34;;;;;;;5.88;2.45;;;;;;;32.60;16.40;102031.69;4910926;28;20044;-87
2022/05/09 10:03:27;;;;;;;6.55;2.35;;;;;;;32.48;15.38;102021.88;4914430;28;20058;-88
2022/05/09 10:05:56;;;;;;;5.53;2.17;;;;;;;32.32;16.34;102016.84;4919922;28;20532;-88
2022/05/09 10:08:41;;;;;;;7.45;2.40;;;;;;;32.25;16.02;102018.31;4900077;28;20064;-87
2022/05/09 10:11:21;;;;;;;5.63;2.20;;;;;;;32.56;16.04;102013.13;4896132;28;20048;-87
2022/05/09 10:13:56;;;;;;;3.97;2.35;;;;;;;33.36;15.79;102011.09;4915821;28;20074;-87
2022/05/09 10:16:41;;;;;;;5.43;2.00;;;;;;;34.22;15.19;102003.63;4912946;28;20060;-87
2022/05/09 10:19:16;;;;;;;6.20;1.80;;;;;;;33.83;14.22;102003.44;4920310;28;20067;-87
2022/05/09 10:24:51;;;;;;;6.18;2.05;;;;;;;33.51;14.58;101998.91;4901148;28;20048;-87
2022/05/09 10:27:24;;;;;;;5.72;2.05;;;;;;;33.77;14.13;101998.53;4892032;28;20044;-89
2022/05/09 10:30:09;;;;;;;3.83;1.83;;;;;;;34.16;14.32;101989.72;4908578;28;20517;-88
2022/05/09 10:33:31;;;;;;;5.22;2.13;;;;;;;34.24;14.40;101987.19;4902257;28;20067;-87
2022/05/09 10:36:38;;;;;;;7.10;2.40;;;;;;;33.49;14.35;101987.31;4897065;28;20048;-90
2022/05/09 10:39:34;;;;;;;5.50;2.10;;;;;;;33.26;14.37;101979.31;4921195;28;20036;-87
2022/05/09 10:42:07;;;;;;;5.30;1.98;;;;;;;33.22;15.40;101971.50;4931483;28;20055;-88
2022/05/09 10:44:53;;;;;;;6.75;2.00;;;;;;;33.68;14.60;101973.03;4912453;28;20110;-89
2022/05/09 10:48:00;;;;;;;7.25;2.35;;;;;;;34.60;14.67;101971.28;4913610;28;20040;-88
2022/05/09 10:51:00;;;;;;;2.63;1.70;;;;;;;35.55;13.96;101972.53;4921328;28;20044;-88
2022/05/09 10:53:38;;;;;;;3.55;1.45;;;;;;;36.36;13.43;101971.13;4910635;28;20342;-89
2022/05/09 10:56:22;;;;;;;4.03;1.95;;;;;;;36.01;13.36;101963.63;4913641;28;20383;-87
2022/05/09 10:59:57;;;;;;;3.10;1.48;;;;;;;35.52;13.37;101952.88;4898705;28;20048;-88
2022/05/09 11:06:21;;;;;;;3.13;1.77;;;;;;;35.85;13.77;101946.06;4922937;28;20067;-87
2022/05/09 11:09:57;;;;;;;2.88;1.80;;;;;;;35.24;14.43;101944.56;4911472;28;20044;-88
2022/05/09 11:13:14;;;;;;;5.78;2.00;;;;;;;34.61;14.14;101946.69;4901027;28;20044;-87
2022/05/09 11:15:58;;;;;;;4.25;1.80;;;;;;;34.74;14.21;101940.97;4894641;28;20099;-87
2022/05/09 11:19:05;;;;;;;2.53;1.92;;;;;;;34.83;14.50;101947.41;4919510;28;20075;-88
2022/05/09 11:21:46;;;;;;;8.32;2.90;;;;;;;35.28;14.16;101935.13;4916699;28;20130;-86
2022/05/09 11:24:47;;;;;;;4.35;1.60;;;;;;;35.41;14.28;101943.88;4900440;28;21281;-87
2022/05/09 11:27:59;;;;;;;51.75;7.57;;;;;;;35.62;14.17;101929.22;4917609;28;20048;-88
2022/05/09 11:31:30;;;;;;;5.87;2.40;;;;;;;36.30;13.88;101930.78;4928750;28;20159;-87
2022/05/09 11:34:23;;;;;;;8.70;2.15;;;;;;;36.99;13.22;101924.88;4878052;28;20057;-85
2022/05/09 11:37:08;;;;;;;2.85;1.83;;;;;;;37.44;12.78;101923.88;4877096;28;20128;-89
2022/05/09 11:40:15;;;;;;;4.28;1.52;;;;;;;37.25;13.04;101925.78;4923450;28;20137;-87
2022/05/09 11:46:30;;;;;;;2.78;1.30;;;;;;;37.12;13.31;101921.72;4900990;28;20365;-88
2022/05/09 11:49:25;;;;;;;5.25;1.60;;;;;;;37.88;12.81;101910.13;4917359;28;20048;-89
2022/05/09 11:52:11;;;;;;;2.58;1.98;;;;;;;37.79;12.75;101907.56;4927547;28;20060;-86
2022/05/09 11:54:49;;;;;;;2.40;1.42;;;;;;;37.89;12.90;101908.28;4887661;28;20047;-87
2022/05/09 11:57:30;;;;;;;3.35;1.90;;;;;;;38.30;12.90;101904.84;4898675;28;20052;-86
2022/05/09 12:00:00;;;;;;;5.47;1.70;;;;;;;38.32;12.55;101909.13;4909843;28;20661;-87
2022/05/09 12:02:51;;;;;;;4.45;1.98;;;;;;;38.36;12.40;101906.94;4891549;28;20070;-88
2022/05/09 12:05:29;;;;;;;1.85;1.60;;;;;;;38.77;12.93;101904.25;4902089;28;20083;-87
2022/05/09 12:08:18;;;;;;;3.08;1.50;;;;;;;39.32;11.98;101893.63;4912391;28;20059;-86
2022/05/09 12:10:50;;;;;;;4.45;1.65;;;;;;;39.28;12.41;101895.84;4905479;28;20121;-86
2022/05/09 12:13:21;;;;;;;4.47;1.40;;;;;;;39.34;12.31;101886.09;4913769;28;20258;-86
2022/05/09 12:15:59;;;;;;;3.33;1.52;;;;;;;39.76;12.23;101892.34;4915539;28;20058;-86
2022/05/09 12:18:45;;;;;;;3.03;1.48;;;;;;;39.91;12.05;101886.94;4922179;28;20059;-87
2022/05/09 12:21:21;;;;;;;3.60;1.77;;;;;;;40.40;11.62;101881.19;4907228;28;20304;-89
2022/05/09 12:24:25;;;;;;;1.55;1.15;;;;;;;39.52;12.05;101884.00;4932932;28;20063;-87